Time;durP1;ratioP1;P1;durP2;ratioP2;P2;SDS_P1;SDS_P2;PMS_P1;PMS_P2;Temp;Humidity;BMP_temperature;BMP_pressure;BME280_temperature;BME280_humidity;BME280_pressure;Samples;Min_cycle;Max_cycle;Signal;HPM_P1;HPM_P2
2022/03/17 00:01:47;;;;;;;41.10;29.00;;;10.20;99.90;;;;;;4939845;28;91582;-33
2022/03/17 00:04:12;;;;;;;38.03;27.65;;;10.10;99.90;;;;;;4939746;28;90736;-34
2022/03/17 00:06:38;;;;;;;34.92;28.02;;;10.00;99.90;;;;;;4939839;28;90259;-35
2022/03/17 00:09:07;;;;;;;38.72;28.55;;;10.00;99.90;;;;;;4940660;28;89755;-32
2022/03/17 00:11:33;;;;;;;36.15;26.75;;;10.10;99.90;;;;;;4939650;28;90524;-33
2022/03/17 00:13:58;;;;;;;36.92;28.00;;;10.00;99.90;;;;;;4971940;23;89539;-33
2022/03/17 00:16:24;;;;;;;37.67;27.83;;;10.10;99.90;;;;;;4939746;28;89563;-34
2022/03/17 00:18:50;;;;;;;37.50;28.70;;;10.10;99.90;;;;;;4940580;28;88625;-35
2022/03/17 00:21:15;;;;;;;33.58;28.25;;;10.00;99.90;;;;;;4940416;28;91311;-32
2022/03/17 00:23:41;;;;;;;37.35;28.98;;;10.00;99.90;;;;;;4939446;28;89518;-33
2022/03/17 00:26:07;;;;;;;34.63;27.63;;;10.00;99.90;;;;;;4939822;28;89363;-31
2022/03/17 00:28:32;;;;;;;40.72;28.08;;;9.90;99.90;;;;;;4939946;28;88509;-33
2022/03/17 00:30:59;;;;;;;37.53;27.88;;;9.90;99.90;;;;;;4940183;28;90399;-33
2022/03/17 00:33:25;;;;;;;37.30;27.63;;;9.90;99.90;;;;;;4939543;28;90299;-36
2022/03/17 00:35:50;;;;;;;38.30;28.23;;;10.00;99.90;;;;;;4939186;28;89556;-33
2022/03/17 00:38:17;;;;;;;36.63;29.02;;;9.90;99.90;;;;;;4940827;28;89376;-32
2022/03/17 00:40:45;;;;;;;37.28;28.88;;;9.80;99.90;;;;;;4939504;28;90064;-34
2022/03/17 00:43:12;;;;;;;41.97;30.40;;;9.80;99.90;;;;;;4939848;28;89756;-33
2022/03/17 00:45:43;;;;;;;37.90;29.17;;;9.90;99.90;;;;;;4939729;28;89999;-35
2022/03/17 00:48:09;;;;;;;38.03;28.05;;;9.80;99.90;;;;;;4940074;28;89541;-35
2022/03/17 00:50:36;;;;;;;38.97;28.33;;;9.80;99.90;;;;;;4939842;28;90230;-34
2022/03/17 00:53:02;;;;;;;36.80;27.80;;;9.80;99.90;;;;;;4938582;28;90727;-35
2022/03/17 00:55:28;;;;;;;38.65;28.90;;;9.80;99.90;;;;;;4940146;28;89243;-34
2022/03/17 00:57:54;;;;;;;39.58;29.48;;;9.80;99.90;;;;;;4939678;28;89010;-33
2022/03/17 01:00:21;;;;;;;38.60;30.27;;;9.80;99.90;;;;;;4939560;28;90289;-34
2022/03/17 01:02:49;;;;;;;42.92;30.60;;;9.80;99.90;;;;;;4939393;28;89731;-36
2022/03/17 01:05:16;;;;;;;40.75;29.13;;;9.80;99.90;;;;;;4939784;28;89450;-33
2022/03/17 01:07:42;;;;;;;40.95;29.88;;;9.80;99.90;;;;;;4939460;28;88490;-35
2022/03/17 01:10:10;;;;;;;42.67;30.10;;;9.90;99.90;;;;;;4939839;28;90298;-32
2022/03/17 01:12:36;;;;;;;35.65;29.15;;;9.90;99.90;;;;;;4937924;28;89569;-32
2022/03/17 01:15:03;;;;;;;37.00;29.30;;;9.90;99.90;;;;;;4939508;28;90484;-33
2022/03/17 01:17:29;;;;;;;42.00;29.15;;;9.90;99.90;;;;;;4938861;28;88926;-34
2022/03/17 01:19:54;;;;;;;42.90;30.20;;;9.90;99.90;;;;;;4939065;28;91238;-32
2022/03/17 01:22:23;;;;;;;38.88;28.05;;;9.90;99.90;;;;;;4939821;28;89893;-33
2022/03/17 01:24:54;;;;;;;;;;;9.90;99.90;;;;;;4939046;28;89467;-35
2022/03/17 01:27:20;;;;;;;37.53;30.42;;;9.90;99.90;;;;;;4941343;28;89126;-33
2022/03/17 01:29:50;;;;;;;42.38;31.50;;;9.90;99.90;;;;;;4938842;28;88861;-31
2022/03/17 01:32:17;;;;;;;44.45;30.40;;;9.90;99.90;;;;;;4938617;28;91139;-32
2022/03/17 01:34:43;;;;;;;37.00;27.90;;;9.80;99.90;;;;;;4939665;28;89454;-32
2022/03/17 01:37:08;;;;;;;38.58;28.52;;;9.80;99.90;;;;;;4939197;28;89585;-34
2022/03/17 01:39:34;;;;;;;42.92;29.85;;;9.70;99.90;;;;;;4938745;28;90496;-37
2022/03/17 01:42:04;;;;;;;41.13;29.80;;;9.80;99.90;;;;;;4938665;28;90726;-33
2022/03/17 01:44:30;;;;;;;36.67;28.20;;;9.80;99.90;;;;;;4939862;28;90427;-31
2022/03/17 01:49:40;;;;;;;38.97;29.33;;;9.80;99.90;;;;;;4938911;28;90022;-34
2022/03/17 01:52:06;;;;;;;34.63;28.48;;;9.70;99.90;;;;;;4939418;28;89490;-34
2022/03/17 01:54:36;;;;;;;44.13;31.65;;;9.80;99.90;;;;;;4938823;28;89445;-34
2022/03/17 01:57:07;;;;;;;40.28;29.52;;;9.80;99.90;;;;;;4939019;28;89118;-34
2022/03/17 01:59:35;;;;;;;40.00;28.10;;;9.70;99.90;;;;;;4939241;28;90156;-33
2022/03/17 02:02:03;;;;;;;40.25;30.48;;;9.80;99.90;;;;;;4938162;28;89653;-34
2022/03/17 02:04:29;;;;;;;40.40;28.92;;;9.70;99.90;;;;;;4939181;28;89475;-34
2022/03/17 02:06:55;;;;;;;41.88;29.08;;;9.70;99.90;;;;;;4937986;28;90108;-32
2022/03/17 02:09:24;;;;;;;44.63;30.73;;;9.80;99.90;;;;;;4938832;28;91303;-35
2022/03/17 02:14:34;;;;;;;35.90;28.98;;;9.80;99.90;;;;;;4938880;28;89449;-35
2022/03/17 02:17:01;;;;;;;39.88;29.52;;;9.70;99.90;;;;;;4937933;28;88226;-36
2022/03/17 02:19:26;;;;;;;39.33;30.30;;;9.80;99.90;;;;;;4939244;28;90288;-33
2022/03/17 02:21:52;;;;;;;39.80;29.80;;;9.80;99.90;;;;;;4938142;28;89608;-35
2022/03/17 02:27:03;;;;;;;41.40;29.45;;;10.00;99.90;;;;;;4942153;28;88919;-32
2022/03/17 02:29:31;;;;;;;35.40;28.58;;;10.00;99.90;;;;;;4941981;28;90221;-35
2022/03/17 02:31:58;;;;;;;38.97;30.00;;;10.00;99.90;;;;;;4941253;28;91465;-33
2022/03/17 02:34:23;;;;;;;39.58;30.17;;;10.00;99.90;;;;;;4942948;28;90357;-33
2022/03/17 02:36:50;;;;;;;40.20;31.00;;;10.10;99.90;;;;;;4941587;28;88685;-33
2022/03/17 02:39:19;;;;;;;40.78;30.40;;;10.10;99.90;;;;;;4941431;28;90439;-36
2022/03/17 02:41:44;;;;;;;38.15;30.00;;;10.10;99.90;;;;;;4942108;28;90036;-32
2022/03/17 02:44:11;;;;;;;35.58;29.17;;;10.10;99.90;;;;;;4942107;28;90840;-31
2022/03/17 02:46:37;;;;;;;32.88;28.33;;;10.20;99.90;;;;;;4941431;28;88300;-35
2022/03/17 02:49:04;;;;;;;40.00;29.92;;;10.20;99.90;;;;;;4941752;28;88951;-34
2022/03/17 02:51:29;;;;;;;37.55;28.75;;;10.20;99.90;;;;;;4941891;28;90186;-31
2022/03/17 02:53:55;;;;;;;36.65;28.00;;;10.30;99.90;;;;;;4941397;28;89516;-32
2022/03/17 02:56:20;;;;;;;37.33;28.25;;;10.30;99.90;;;;;;4941333;28;89340;-35
2022/03/17 02:58:46;;;;;;;39.83;29.52;;;10.30;99.90;;;;;;4941476;28;90324;-35
2022/03/17 03:01:12;;;;;;;32.40;27.45;;;10.30;99.90;;;;;;4941534;28;89657;-34
2022/03/17 03:03:37;;;;;;;39.10;29.73;;;10.30;99.90;;;;;;4940828;28;90182;-33
2022/03/17 03:06:03;;;;;;;41.72;31.08;;;10.40;99.90;;;;;;4941461;28;88993;-34
2022/03/17 03:08:29;;;;;;;34.50;27.60;;;10.40;99.90;;;;;;4942228;28;89892;-32
2022/03/17 03:10:57;;;;;;;33.65;29.00;;;10.40;99.90;;;;;;4940335;28;89562;-33
2022/03/17 03:13:22;;;;;;;37.30;27.53;;;10.40;99.90;;;;;;4940694;28;89364;-34
2022/03/17 03:15:50;;;;;;;36.22;29.95;;;10.40;99.90;;;;;;4941469;28;88086;-34
2022/03/17 03:18:16;;;;;;;36.93;28.70;;;10.30;99.90;;;;;;4941282;28;90107;-32
2022/03/17 03:20:42;;;;;;;39.25;29.30;;;10.30;99.90;;;;;;4940404;28;90484;-33
2022/03/17 03:23:08;;;;;;;40.60;29.20;;;10.30;99.90;;;;;;4941106;28;90554;-34
2022/03/17 03:25:34;;;;;;;42.22;30.48;;;10.30;99.90;;;;;;4940844;28;88952;-33
2022/03/17 03:28:10;;;;;;;35.50;29.75;;;10.40;99.90;;;;;;4941235;28;90070;-31
2022/03/17 03:30:36;;;;;;;41.72;31.38;;;10.30;99.90;;;;;;4940914;28;91370;-31
2022/03/17 03:33:03;;;;;;;36.90;28.95;;;10.30;99.90;;;;;;4940684;28;89895;-32
2022/03/17 03:38:13;;;;;;;37.33;31.50;;;10.30;99.90;;;;;;4940803;28;92438;-36
2022/03/17 03:40:39;;;;;;;41.63;31.90;;;10.20;99.90;;;;;;4940422;28;89541;-32
2022/03/17 03:43:04;;;;;;;46.75;30.30;;;10.20;99.90;;;;;;4939354;28;89450;-32
2022/03/17 03:45:30;;;;;;;37.33;28.40;;;10.10;99.90;;;;;;4940553;28;88060;-33
2022/03/17 03:47:55;;;;;;;40.53;29.20;;;10.10;99.90;;;;;;4940542;28;90101;-34
2022/03/17 03:50:21;;;;;;;38.88;30.55;;;10.10;99.90;;;;;;4940284;28;89549;-33
2022/03/17 03:52:47;;;;;;;37.22;28.75;;;10.00;99.90;;;;;;4940517;28;89213;-34
2022/03/17 03:55:12;;;;;;;38.00;29.52;;;10.10;99.90;;;;;;4940617;28;88534;-31
2022/03/17 03:57:39;;;;;;;41.03;31.17;;;10.20;99.90;;;;;;4940735;28;90968;-34
2022/03/17 04:02:51;;;;;;;42.50;32.33;;;10.20;99.90;;;;;;4939533;28;89275;-33
2022/03/17 04:05:18;;;;;;;39.58;31.33;;;10.20;99.90;;;;;;4941091;28;90604;-32
2022/03/17 04:07:44;;;;;;;41.10;33.13;;;10.20;99.90;;;;;;4940474;28;89018;-36
2022/03/17 04:10:10;;;;;;;40.30;29.58;;;10.20;99.90;;;;;;4940007;28;92046;-32
2022/03/17 04:12:35;;;;;;;35.22;29.35;;;10.20;99.90;;;;;;4939527;28;88720;-32
2022/03/17 04:15:01;;;;;;;42.33;31.10;;;10.20;99.90;;;;;;4940478;28;88182;-36
2022/03/17 04:17:27;;;;;;;42.83;31.85;;;10.20;99.90;;;;;;4939970;28;90756;-32
2022/03/17 04:19:53;;;;;;;36.10;27.35;;;10.20;99.90;;;;;;4940208;28;89764;-35
2022/03/17 04:22:19;;;;;;;43.72;32.25;;;10.20;99.90;;;;;;4939935;28;89886;-34
2022/03/17 04:24:45;;;;;;;39.47;27.63;;;10.30;99.90;;;;;;4940268;28;88309;-33
2022/03/17 04:27:10;;;;;;;41.50;31.67;;;10.30;99.90;;;;;;4940302;28;90225;-33
2022/03/17 04:29:36;;;;;;;31.10;26.48;;;10.20;99.90;;;;;;4939517;28;89517;-34
2022/03/17 04:32:01;;;;;;;41.83;30.67;;;10.30;99.90;;;;;;4940348;28;89597;-33
2022/03/17 04:34:27;;;;;;;36.60;30.90;;;10.30;99.90;;;;;;4939739;28;90324;-34
2022/03/17 04:36:52;;;;;;;43.63;31.52;;;10.20;99.90;;;;;;4938256;28;90609;-35
2022/03/17 04:39:18;;;;;;;41.05;29.98;;;10.30;99.90;;;;;;4939815;28;90135;-36
2022/03/17 04:41:44;;;;;;;38.00;31.88;;;10.30;99.90;;;;;;4939715;28;89339;-34
2022/03/17 04:44:09;;;;;;;43.55;32.33;;;10.30;99.90;;;;;;4939922;28;89386;-33
2022/03/17 04:46:36;;;;;;;36.00;29.50;;;10.30;99.90;;;;;;4938827;28;90165;-33
2022/03/17 04:49:02;;;;;;;41.40;32.47;;;10.40;99.90;;;;;;4939571;28;89486;-34
2022/03/17 04:51:28;;;;;;;44.38;33.08;;;10.40;99.90;;;;;;4940215;28;89837;-34
2022/03/17 04:53:53;;;;;;;42.22;33.97;;;10.40;99.90;;;;;;4939615;28;88823;-35
2022/03/17 04:56:19;;;;;;;42.33;34.90;;;10.40;99.90;;;;;;4939688;28;91449;-32
2022/03/17 04:58:45;;;;;;;42.83;34.80;;;10.40;99.90;;;;;;4938526;28;90458;-32
2022/03/17 05:01:12;;;;;;;40.65;34.95;;;10.30;99.90;;;;;;4939054;28;90681;-36
2022/03/17 05:03:39;;;;;;;43.25;33.13;;;10.30;99.90;;;;;;4939621;28;89405;-32
2022/03/17 05:06:05;;;;;;;47.85;39.22;;;10.20;99.90;;;;;;4939247;28;90975;-34
2022/03/17 05:08:35;;;;;;;54.45;40.50;;;10.20;99.90;;;;;;4939793;28;89536;-36
2022/03/17 05:11:02;;;;;;;45.80;37.63;;;10.10;99.90;;;;;;4939495;28;89415;-35
2022/03/17 05:13:28;;;;;;;54.17;39.92;;;10.00;99.90;;;;;;4939638;28;89902;-32
2022/03/17 05:15:53;;;;;;;53.88;44.42;;;9.90;99.90;;;;;;4939179;28;90533;-32
2022/03/17 05:18:19;;;;;;;51.40;44.13;;;9.90;99.90;;;;;;4939994;28;89640;-32
2022/03/17 05:20:46;;;;;;;57.92;44.03;;;9.80;99.90;;;;;;4938702;28;89595;-32
2022/03/17 05:23:14;;;;;;;60.75;47.20;;;9.70;99.90;;;;;;4938847;28;89513;-36
2022/03/17 05:25:40;;;;;;;61.63;48.90;;;9.70;99.90;;;;;;4940080;28;90166;-33
2022/03/17 05:28:08;;;;;;;63.83;46.95;;;9.70;99.90;;;;;;4939607;28;89629;-32
2022/03/17 05:30:34;;;;;;;59.20;47.25;;;9.70;99.90;;;;;;4939646;28;90339;-35
2022/03/17 05:33:00;;;;;;;59.17;44.55;;;9.60;99.90;;;;;;4939318;28;89465;-36
2022/03/17 05:35:26;;;;;;;56.28;45.50;;;9.70;99.90;;;;;;4938558;28;91695;-34
2022/03/17 05:37:53;;;;;;;60.00;49.85;;;9.60;99.90;;;;;;4938365;28;89564;-33
2022/03/17 05:40:19;;;;;;;54.00;43.05;;;9.60;99.90;;;;;;4939779;28;89529;-32
2022/03/17 05:42:53;;;;;;;59.60;45.72;;;9.70;99.90;;;;;;4939235;28;89057;-32
2022/03/17 05:45:20;;;;;;;47.20;38.63;;;9.70;99.90;;;;;;4939228;28;90471;-31
2022/03/17 05:47:50;;;;;;;34.60;27.67;;;9.70;99.90;;;;;;4938289;28;90350;-33
2022/03/17 05:50:21;;;;;;;32.95;24.92;;;9.80;99.90;;;;;;4939478;28;90487;-33
2022/03/17 05:52:47;;;;;;;26.23;22.23;;;9.70;99.90;;;;;;4939275;28;87983;-35
2022/03/17 05:55:18;;;;;;;19.35;17.25;;;9.60;99.90;;;;;;4938850;28;90190;-34
2022/03/17 05:57:46;;;;;;;21.02;17.92;;;9.60;99.90;;;;;;4938985;28;88674;-32
2022/03/17 06:00:17;;;;;;;10.80;9.70;;;9.50;99.90;;;;;;4942207;28;90250;-33
2022/03/17 06:02:43;;;;;;;11.60;10.32;;;9.50;99.90;;;;;;4943115;28;88213;-35
2022/03/17 06:05:09;;;;;;;11.05;9.90;;;9.30;99.90;;;;;;4942372;28;91479;-35
2022/03/17 06:07:37;;;;;;;11.30;10.15;;;9.30;99.90;;;;;;4943093;28;89760;-33
2022/03/17 06:10:04;;;;;;;10.97;9.87;;;9.10;99.90;;;;;;4941901;28;90033;-34
2022/03/17 06:12:31;;;;;;;12.13;10.00;;;8.90;99.90;;;;;;4941641;28;88999;-35
2022/03/17 06:14:57;;;;;;;13.40;11.45;;;8.80;99.90;;;;;;4942087;28;90370;-35
2022/03/17 06:17:23;;;;;;;17.15;14.30;;;8.70;99.90;;;;;;4942607;28;89510;-33
2022/03/17 06:19:49;;;;;;;14.43;11.80;;;8.60;99.90;;;;;;4941679;28;89447;-32
2022/03/17 06:22:14;;;;;;;15.70;12.85;;;8.50;99.90;;;;;;4942533;28;88283;-32
2022/03/17 06:24:40;;;;;;;17.65;12.20;;;8.40;99.90;;;;;;4941599;28;90317;-32
2022/03/17 06:27:05;;;;;;;18.27;12.57;;;8.40;99.90;;;;;;4941910;28;89845;-32
2022/03/17 06:29:31;;;;;;;16.98;12.18;;;8.40;99.90;;;;;;4942952;28;90134;-32
2022/03/17 06:31:57;;;;;;;17.80;12.30;;;8.30;99.90;;;;;;4941327;28;88589;-34
2022/03/17 06:34:22;;;;;;;13.63;12.23;;;8.30;99.90;;;;;;4942327;28;90301;-33
2022/03/17 06:36:48;;;;;;;22.77;13.27;;;8.40;99.90;;;;;;4940665;28;90208;-32
2022/03/17 06:39:13;;;;;;;19.10;12.75;;;8.30;99.90;;;;;;4942374;28;90725;-36
2022/03/17 06:41:39;;;;;;;21.13;12.48;;;8.30;99.90;;;;;;4941516;28;89202;-32
2022/03/17 06:44:05;;;;;;;25.15;14.27;;;8.20;99.90;;;;;;4941345;28;89090;-37
2022/03/17 06:46:30;;;;;;;23.27;14.55;;;8.20;99.90;;;;;;4941738;28;90384;-31
2022/03/17 06:48:56;;;;;;;16.08;12.00;;;8.20;99.90;;;;;;4941169;28;89847;-32
2022/03/17 06:51:22;;;;;;;19.13;13.02;;;8.20;99.90;;;;;;4941732;28;89484;-33
2022/03/17 06:53:47;;;;;;;14.60;10.73;;;8.20;99.90;;;;;;4941240;28;90032;-31
2022/03/17 06:56:13;;;;;;;19.25;11.88;;;8.10;99.90;;;;;;4941454;28;89404;-36
2022/03/17 06:58:39;;;;;;;13.30;10.95;;;8.30;99.90;;;;;;4941717;28;90441;-32
2022/03/17 07:01:05;;;;;;;15.25;11.52;;;8.20;99.90;;;;;;4939042;28;89101;-34
2022/03/17 07:03:30;;;;;;;18.65;11.50;;;8.20;99.90;;;;;;4941773;28;91580;-34
2022/03/17 07:05:56;;;;;;;14.05;10.90;;;8.20;99.90;;;;;;4941183;28;89435;-33
2022/03/17 07:08:21;;;;;;;17.58;11.07;;;8.10;99.90;;;;;;4941727;28;88858;-35
2022/03/17 07:10:47;;;;;;;13.60;10.65;;;8.20;99.90;;;;;;4940983;28;88965;-34
2022/03/17 07:13:13;;;;;;;18.30;11.02;;;8.10;99.90;;;;;;4940608;28;90204;-33
2022/03/17 07:15:39;;;;;;;18.63;10.25;;;8.10;99.90;;;;;;4941682;28;89703;-33
2022/03/17 07:18:05;;;;;;;14.13;9.32;;;8.00;99.90;;;;;;4940904;28;89965;-32
2022/03/17 07:20:30;;;;;;;20.58;11.55;;;8.10;99.90;;;;;;4945175;28;89355;-32
2022/03/17 07:22:56;;;;;;;13.82;10.82;;;8.10;99.90;;;;;;4940721;28;89052;-31
2022/03/17 07:25:23;;;;;;;17.33;10.55;;;8.00;99.90;;;;;;4941905;28;90429;-36
2022/03/17 07:27:49;;;;;;;21.13;11.43;;;8.00;99.90;;;;;;4941299;28;89534;-33
2022/03/17 07:30:22;;;;;;;12.85;9.02;;;8.00;99.90;;;;;;4940741;28;87554;-33
2022/03/17 07:32:52;;;;;;;15.68;9.40;;;8.10;99.90;;;;;;4941596;28;90282;-32
2022/03/17 07:35:18;;;;;;;9.48;8.20;;;8.10;99.90;;;;;;4941784;28;88599;-35
2022/03/17 07:37:44;;;;;;;10.27;6.75;;;8.10;99.90;;;;;;4942100;28;89334;-31
2022/03/17 07:40:12;;;;;;;14.55;8.15;;;8.10;99.90;;;;;;4941403;28;90016;-35
2022/03/17 07:42:38;;;;;;;10.07;6.65;;;8.00;99.90;;;;;;4939938;28;91464;-34
2022/03/17 07:45:05;;;;;;;13.90;7.45;;;8.10;99.90;;;;;;4954144;28;89877;-32
2022/03/17 07:47:32;;;;;;;10.35;5.80;;;8.10;99.90;;;;;;4958446;28;89512;-36
2022/03/17 07:49:59;;;;;;;13.38;6.18;;;8.00;99.90;;;;;;4958438;28;88895;-34
2022/03/17 07:52:24;;;;;;;10.80;5.15;;;8.00;99.90;;;;;;4958474;28;90151;-32
2022/03/17 07:54:50;;;;;;;10.65;5.28;;;8.10;99.90;;;;;;4957801;28;89214;-35
2022/03/17 07:57:16;;;;;;;10.55;4.82;;;8.20;99.90;;;;;;4958667;28;89555;-31
2022/03/17 07:59:42;;;;;;;12.13;4.53;;;8.20;99.90;;;;;;4958604;28;89262;-35
2022/03/17 08:02:07;;;;;;;5.55;3.58;;;8.20;99.90;;;;;;4959453;28;90752;-33
2022/03/17 08:04:34;;;;;;;7.00;4.07;;;8.20;99.90;;;;;;4958146;28;90282;-34
2022/03/17 08:07:00;;;;;;;6.70;3.53;;;8.10;99.90;;;;;;4958312;28;90384;-34
2022/03/17 08:09:27;;;;;;;8.00;2.95;;;8.10;99.90;;;;;;4959101;28;87912;-31
2022/03/17 08:11:53;;;;;;;5.05;3.10;;;8.10;99.90;;;;;;4958079;28;91995;-32
2022/03/17 08:14:19;;;;;;;9.82;2.47;;;8.10;99.90;;;;;;4957996;28;90844;-33
2022/03/17 08:16:44;;;;;;;10.38;2.85;;;8.10;99.90;;;;;;4958214;28;90703;-32
2022/03/17 08:19:11;;;;;;;9.23;3.40;;;8.00;99.90;;;;;;4958056;28;89034;-31
2022/03/17 08:21:37;;;;;;;10.13;3.38;;;8.10;99.90;;;;;;4957789;28;89639;-31
2022/03/17 08:24:03;;;;;;;6.28;2.10;;;8.10;99.90;;;;;;4958731;28;89510;-35
2022/03/17 08:26:29;;;;;;;11.45;2.38;;;8.10;99.90;;;;;;4958257;28;89532;-31
2022/03/17 08:28:54;;;;;;;4.53;2.50;;;8.20;99.90;;;;;;4958188;28;88921;-34
2022/03/17 08:31:20;;;;;;;5.88;2.35;;;8.20;99.90;;;;;;4957764;28;90378;-35
2022/03/17 08:33:45;;;;;;;4.40;2.25;;;8.30;99.90;;;;;;4958420;28;89573;-34
2022/03/17 08:36:11;;;;;;;7.18;2.88;;;8.20;99.90;;;;;;4958000;28;89819;-33
2022/03/17 08:38:36;;;;;;;5.13;1.85;;;8.20;99.90;;;;;;4957841;28;88879;-35
2022/03/17 08:41:02;;;;;;;6.78;2.60;;;8.20;99.90;;;;;;4938641;28;90101;-32
2022/03/17 08:43:28;;;;;;;8.65;2.10;;;8.20;99.90;;;;;;4957057;28;89413;-33
2022/03/17 08:51:26;;;;;;;6.82;2.45;;;8.20;99.90;;;;;;4937185;28;90566;-31
2022/03/17 08:53:52;;;;;;;6.90;3.03;;;8.20;99.90;;;;;;4938175;28;89624;-33
2022/03/17 08:56:18;;;;;;;15.52;2.97;;;8.10;99.90;;;;;;4938294;28;89635;-32
2022/03/17 08:58:43;;;;;;;11.65;3.53;;;8.10;99.90;;;;;;4938000;28;88535;-34
2022/03/17 09:01:11;;;;;;;14.18;3.20;;;8.20;99.90;;;;;;4938197;28;90249;-33
2022/03/17 09:03:36;;;;;;;7.10;2.83;;;8.20;99.90;;;;;;4936980;28;90360;-32
2022/03/17 09:06:02;;;;;;;9.25;2.80;;;8.20;99.90;;;;;;4938226;28;90709;-34
2022/03/17 09:08:29;;;;;;;9.35;3.95;;;8.20;99.90;;;;;;4937495;28;88222;-34
2022/03/17 09:10:56;;;;;;;7.63;2.78;;;8.20;99.90;;;;;;4937374;28;90950;-32
2022/03/17 09:13:26;;;;;;;8.73;2.78;;;8.10;99.90;;;;;;4937297;28;89539;-35
2022/03/17 09:15:53;;;;;;;12.32;3.25;;;8.20;99.90;;;;;;4937838;28;89423;-34
2022/03/17 09:18:21;;;;;;;18.43;3.83;;;8.10;99.90;;;;;;4938883;28;89428;-33
2022/03/17 09:20:47;;;;;;;8.73;3.30;;;8.20;99.90;;;;;;4937341;28;90046;-34
2022/03/17 09:23:13;;;;;;;15.45;3.10;;;8.20;99.90;;;;;;4937529;28;89515;-33
2022/03/17 09:25:39;;;;;;;10.13;3.13;;;8.30;99.90;;;;;;4938280;28;89531;-33
2022/03/17 09:28:05;;;;;;;8.90;3.15;;;8.20;99.90;;;;;;4937312;28;89680;-32
2022/03/17 09:30:31;;;;;;;10.80;2.80;;;8.20;99.90;;;;;;4937053;28;90501;-32
2022/03/17 09:32:58;;;;;;;6.70;2.38;;;8.20;99.90;;;;;;4938512;28;89279;-32
2022/03/17 09:35:26;;;;;;;7.10;2.95;;;8.30;99.90;;;;;;4941054;28;89275;-32
2022/03/17 09:37:52;;;;;;;8.45;4.10;;;8.30;99.90;;;;;;4941016;28;88562;-32
2022/03/17 09:40:18;;;;;;;11.65;3.47;;;8.30;99.90;;;;;;4941396;28;90410;-35
2022/03/17 09:42:43;;;;;;;13.25;2.95;;;8.50;99.90;;;;;;4940722;28;89236;-32
2022/03/17 09:45:11;;;;;;;9.77;2.47;;;8.50;99.90;;;;;;4941335;28;89586;-33
2022/03/17 09:47:39;;;;;;;11.60;3.53;;;8.60;99.90;;;;;;4941197;28;90148;-33
2022/03/17 09:50:07;;;;;;;15.43;3.20;;;8.60;99.90;;;;;;4940783;28;90502;-33
2022/03/17 09:52:36;;;;;;;8.65;3.58;;;8.70;99.90;;;;;;4940620;28;90885;-33
2022/03/17 09:55:02;;;;;;;12.73;3.40;;;8.70;99.90;;;;;;4940361;28;90506;-33
2022/03/17 09:57:28;;;;;;;7.88;3.67;;;8.70;99.90;;;;;;4940787;28;88843;-33
2022/03/17 09:59:56;;;;;;;9.73;3.30;;;8.80;99.90;;;;;;4940426;28;91107;-35
2022/03/17 10:02:22;;;;;;;3.70;2.45;;;8.60;99.90;;;;;;4938978;28;89271;-35
2022/03/17 10:04:48;;;;;;;14.73;4.38;;;8.70;99.90;;;;;;4940298;28;89912;-33
2022/03/17 10:07:19;;;;;;;16.90;3.38;;;8.60;99.90;;;;;;4940830;28;89223;-31
2022/03/17 10:09:48;;;;;;;4.90;2.97;;;8.70;99.90;;;;;;4940468;28;90542;-33
2022/03/17 10:12:17;;;;;;;10.60;3.33;;;8.90;99.90;;;;;;4940149;28;89673;-34
2022/03/17 10:14:47;;;;;;;15.02;3.05;;;9.10;99.90;;;;;;4941033;28;89635;-32
2022/03/17 10:17:36;;;;;;;14.30;3.45;;;9.10;99.90;;;;;;4940614;28;88386;-32
2022/03/17 10:20:18;;;;;;;9.98;2.75;;;9.20;99.90;;;;;;4940571;28;90505;-35
2022/03/17 10:22:56;;;;;;;13.35;3.67;;;9.20;99.90;;;;;;4940457;28;88760;-32
2022/03/17 10:25:27;;;;;;;11.60;3.00;;;9.20;99.90;;;;;;4940391;28;89508;-35
2022/03/17 10:27:54;;;;;;;8.98;3.22;;;9.20;99.90;;;;;;4940220;28;88888;-32
2022/03/17 10:30:24;;;;;;;12.55;3.30;;;9.20;99.90;;;;;;4940211;28;89999;-33
2022/03/17 10:33:01;;;;;;;11.43;2.78;;;9.30;99.90;;;;;;4940506;28;89410;-35
2022/03/17 10:35:34;;;;;;;13.27;3.40;;;9.40;99.90;;;;;;4940587;28;88570;-31
2022/03/17 10:38:17;;;;;;;12.15;3.15;;;9.40;99.90;;;;;;4940590;28;90122;-32
2022/03/17 10:40:45;;;;;;;11.43;3.33;;;9.40;99.90;;;;;;4939838;28;90521;-33
2022/03/17 10:43:33;;;;;;;18.02;3.05;;;9.50;99.90;;;;;;4939845;28;90255;-35
2022/03/17 10:46:07;;;;;;;13.63;3.35;;;9.60;99.90;;;;;;4939417;28;90442;-33
2022/03/17 10:48:33;;;;;;;17.30;2.90;;;9.80;99.90;;;;;;4940388;28;89105;-34
2022/03/17 10:50:59;;;;;;;12.65;3.03;;;9.70;99.90;;;;;;4939101;28;90012;-32
2022/03/17 10:53:31;;;;;;;9.15;3.13;;;9.80;99.90;;;;;;4939769;28;90006;-33
2022/03/17 10:56:12;;;;;;;16.48;2.75;;;9.80;99.90;;;;;;4939540;28;89370;-31
2022/03/17 10:58:43;;;;;;;26.48;4.40;;;10.00;99.90;;;;;;4939914;28;89126;-32
2022/03/17 11:01:09;;;;;;;6.85;3.85;;;10.20;99.90;;;;;;4939905;28;90234;-35
2022/03/17 11:03:35;;;;;;;7.93;2.45;;;10.40;99.90;;;;;;4939730;28;89566;-34
2022/03/17 11:06:03;;;;;;;10.40;3.42;;;10.40;99.90;;;;;;4939998;28;89495;-33
2022/03/17 11:08:31;;;;;;;6.83;2.37;;;10.40;99.90;;;;;;4939669;28;90410;-32
2022/03/17 11:10:57;;;;;;;12.53;2.73;;;10.50;99.90;;;;;;4939503;28;90356;-33
2022/03/17 11:13:23;;;;;;;12.93;2.88;;;10.80;99.90;;;;;;4938642;28;89734;-33
2022/03/17 11:16:04;;;;;;;11.13;3.88;;;10.80;99.90;;;;;;4940010;28;89595;-34
2022/03/17 11:18:36;;;;;;;6.10;2.42;;;11.00;99.90;;;;;;4939756;28;88979;-36
2022/03/17 11:21:16;;;;;;;6.13;2.30;;;11.30;99.90;;;;;;4938994;28;90643;-32
2022/03/17 11:23:58;;;;;;;14.45;2.50;;;11.60;99.90;;;;;;4939385;28;90899;-32
2022/03/17 11:26:37;;;;;;;7.53;2.08;;;11.90;99.90;;;;;;4940410;28;89662;-33
2022/03/17 11:29:17;;;;;;;8.75;2.38;;;12.10;99.90;;;;;;4939898;28;87463;-31
2022/03/17 11:31:56;;;;;;;8.85;2.95;;;12.10;99.90;;;;;;4939101;28;89738;-33
2022/03/17 11:34:37;;;;;;;12.50;2.50;;;12.20;99.90;;;;;;4939305;28;89845;-35
2022/03/17 11:37:19;;;;;;;10.55;2.20;;;12.30;99.90;;;;;;4939526;28;90708;-33
2022/03/17 11:39:57;;;;;;;7.60;3.03;;;12.50;99.90;;;;;;4938732;28;88216;-34
2022/03/17 11:42:56;;;;;;;5.73;2.20;;;12.60;99.90;;;;;;4938696;28;90764;-33
2022/03/17 11:45:22;;;;;;;8.48;2.25;;;12.70;99.90;;;;;;4950475;28;88924;-31
2022/03/17 11:47:57;;;;;;;10.38;2.85;;;12.80;99.90;;;;;;4951536;28;89950;-36
2022/03/17 11:50:27;;;;;;;8.23;1.95;;;12.80;99.90;;;;;;4939700;28;89727;-35
2022/03/17 11:53:04;;;;;;;8.25;2.90;;;12.90;99.90;;;;;;4938768;28;90363;-33
2022/03/17 11:55:30;;;;;;;5.30;2.42;;;12.70;99.90;;;;;;4937900;28;89792;-35
2022/03/17 11:58:37;;;;;;;16.67;4.25;;;12.40;99.90;;;;;;4938750;28;90325;-34
2022/03/17 12:01:11;;;;;;;5.88;2.13;;;12.30;99.90;;;;;;4938346;28;90069;-36
2022/03/17 12:03:38;;;;;;;14.90;3.63;;;12.20;99.90;;;;;;4938976;28;90175;-35
2022/03/17 12:06:25;;;;;;;4.50;1.77;;;12.10;99.90;;;;;;4938356;28;89649;-33
2022/03/17 12:09:00;;;;;;;13.75;3.28;;;11.90;99.90;;;;;;4938158;28;89618;-36
2022/03/17 12:11:30;;;;;;;14.02;3.10;;;11.90;99.90;;;;;;4939150;28;89118;-31
2022/03/17 12:14:46;;;;;;;3.95;2.90;;;12.10;98.00;;;;;;4970405;22;90188;-34
2022/03/17 12:17:12;;;;;;;5.53;2.78;;;12.40;97.80;;;;;;4916452;28;89636;-33
2022/03/17 12:19:49;;;;;;;7.50;3.25;;;12.40;97.60;;;;;;4916204;28;89965;-33
2022/03/17 12:22:35;;;;;;;11.35;3.63;;;12.50;99.90;;;;;;4929776;28;88628;-33
2022/03/17 12:25:08;;;;;;;5.88;2.90;;;12.60;93.40;;;;;;4939038;28;90290;-35
2022/03/17 12:27:35;;;;;;;7.93;3.33;;;12.60;99.90;;;;;;4937842;28;90553;-36
2022/03/17 12:30:07;;;;;;;6.97;2.70;;;12.70;99.90;;;;;;4938437;28;90666;-36
2022/03/17 12:32:53;;;;;;;7.13;3.13;;;12.50;94.90;;;;;;4938698;28;89636;-36
2022/03/17 12:35:23;;;;;;;10.40;3.35;;;12.40;96.70;;;;;;4938666;28;90243;-35
2022/03/17 12:37:49;;;;;;;7.28;2.83;;;12.30;99.90;;;;;;4937875;28;91139;-37
2022/03/17 12:40:18;;;;;;;11.65;3.05;;;12.40;95.90;;;;;;4938615;28;89354;-32
2022/03/17 12:42:45;;;;;;;;;;;12.10;98.40;;;;;;4938329;28;89454;-35
2022/03/17 12:45:16;;;;;;;8.85;2.63;;;12.00;99.90;;;;;;4939143;28;90272;-32
2022/03/17 12:47:43;;;;;;;8.93;2.85;;;11.90;99.90;;;;;;4938134;28;89776;-35
2022/03/17 12:50:14;;;;;;;10.07;3.17;;;11.70;99.90;;;;;;4938445;28;89313;-35
2022/03/17 12:52:41;;;;;;;5.40;3.00;;;11.70;99.90;;;;;;4936033;28;88403;-33
2022/03/17 12:55:09;;;;;;;11.50;4.13;;;11.60;99.90;;;;;;4938131;28;90224;-36
2022/03/17 12:57:37;;;;;;;8.23;3.22;;;11.60;99.90;;;;;;4938584;28;89756;-33
2022/03/17 13:00:04;;;;;;;7.65;3.00;;;11.40;99.90;;;;;;4937988;28;88724;-33
2022/03/17 13:02:31;;;;;;;5.53;2.88;;;11.40;99.90;;;;;;4939064;28;87511;-33
2022/03/17 13:04:58;;;;;;;7.60;2.65;;;11.50;99.90;;;;;;4939539;28;90216;-34